sensor_id;sensor_type;location;lat;lon;timestamp;pressure;altitude;pressure_sealevel;temperature;humidity
46944;BME280;32678;43.852;25.952;2022-07-01T00:05:00;100894.97;;;29.63;48.28
46944;BME280;32678;43.852;25.952;2022-07-01T00:10:13;100894.91;;;28.90;50.75
46944;BME280;32678;43.852;25.952;2022-07-01T00:15:10;100889.91;;;28.61;51.31
46944;BME280;32678;43.852;25.952;2022-07-01T00:20:12;100889.81;;;28.79;51.45
46944;BME280;32678;43.852;25.952;2022-07-01T00:25:11;100898.50;;;29.07;51.03
46944;BME280;32678;43.852;25.952;2022-07-01T00:30:08;100914.00;;;28.97;51.29
46944;BME280;32678;43.852;25.952;2022-07-01T00:35:09;100915.03;;;29.20;51.19
46944;BME280;32678;43.852;25.952;2022-07-01T00:40:17;100907.00;;;29.44;51.20
46944;BME280;32678;43.852;25.952;2022-07-01T00:45:24;100908.06;;;28.85;53.32
46944;BME280;32678;43.852;25.952;2022-07-01T00:50:22;100907.91;;;28.95;53.46
46944;BME280;32678;43.852;25.952;2022-07-01T00:55:22;100893.94;;;28.57;54.21
46944;BME280;32678;43.852;25.952;2022-07-01T01:00:28;100901.53;;;28.62;54.07
46944;BME280;32678;43.852;25.952;2022-07-01T01:05:26;100888.13;;;28.36;54.48
46944;BME280;32678;43.852;25.952;2022-07-01T01:10:38;100885.91;;;28.31;53.49
46944;BME280;32678;43.852;25.952;2022-07-01T01:15:38;100896.41;;;28.34;52.88
46944;BME280;32678;43.852;25.952;2022-07-01T01:20:45;100893.09;;;28.49;52.31
46944;BME280;32678;43.852;25.952;2022-07-01T01:25:46;100895.22;;;28.79;51.75
46944;BME280;32678;43.852;25.952;2022-07-01T01:31:04;100903.00;;;28.98;51.39
46944;BME280;32678;43.852;25.952;2022-07-01T01:36:01;100898.84;;;29.20;50.69
46944;BME280;32678;43.852;25.952;2022-07-01T01:40:58;100895.19;;;29.45;49.88
46944;BME280;32678;43.852;25.952;2022-07-01T01:45:55;100898.53;;;29.63;49.04
46944;BME280;32678;43.852;25.952;2022-07-01T01:51:12;100905.28;;;29.67;48.82
46944;BME280;32678;43.852;25.952;2022-07-01T01:56:20;100894.47;;;29.84;48.33
46944;BME280;32678;43.852;25.952;2022-07-01T02:01:22;100892.63;;;29.76;48.31
46944;BME280;32678;43.852;25.952;2022-07-01T02:06:24;100908.47;;;29.87;48.17
46944;BME280;32678;43.852;25.952;2022-07-01T02:11:22;100902.91;;;30.05;47.64
46944;BME280;32678;43.852;25.952;2022-07-01T02:16:21;100910.97;;;30.13;46.77
46944;BME280;32678;43.852;25.952;2022-07-01T02:21:23;100917.94;;;29.99;46.53
46944;BME280;32678;43.852;25.952;2022-07-01T02:26:37;100916.75;;;30.02;46.91
46944;BME280;32678;43.852;25.952;2022-07-01T02:31:36;100919.97;;;29.97;46.83
46944;BME280;32678;43.852;25.952;2022-07-01T02:36:38;100917.94;;;29.99;46.34
46944;BME280;32678;43.852;25.952;2022-07-01T02:41:35;100914.75;;;29.63;46.01
46944;BME280;32678;43.852;25.952;2022-07-01T02:46:53;100919.41;;;29.05;46.76
46944;BME280;32678;43.852;25.952;2022-07-01T02:51:51;100922.25;;;28.87;51.44
46944;BME280;32678;43.852;25.952;2022-07-01T02:56:50;100924.63;;;28.22;54.48
46944;BME280;32678;43.852;25.952;2022-07-01T03:01:47;100930.44;;;28.10;54.32
46944;BME280;32678;43.852;25.952;2022-07-01T03:06:44;100938.13;;;28.64;53.29
46944;BME280;32678;43.852;25.952;2022-07-01T03:11:41;100946.00;;;28.83;54.17
46944;BME280;32678;43.852;25.952;2022-07-01T03:16:38;100948.25;;;28.96;53.58
46944;BME280;32678;43.852;25.952;2022-07-01T03:21:35;100933.91;;;28.96;52.09
46944;BME280;32678;43.852;25.952;2022-07-01T03:26:32;100938.94;;;28.91;51.55
46944;BME280;32678;43.852;25.952;2022-07-01T03:31:34;100944.38;;;29.07;51.27
46944;BME280;32678;43.852;25.952;2022-07-01T03:36:31;100943.56;;;29.22;50.65
46944;BME280;32678;43.852;25.952;2022-07-01T03:41:29;100946.19;;;29.56;49.43
46944;BME280;32678;43.852;25.952;2022-07-01T03:46:26;100944.81;;;29.68;48.17
46944;BME280;32678;43.852;25.952;2022-07-01T03:51:27;100955.59;;;29.52;47.66
46944;BME280;32678;43.852;25.952;2022-07-01T03:56:24;100955.78;;;29.59;47.35
46944;BME280;32678;43.852;25.952;2022-07-01T04:01:21;100954.59;;;29.69;47.92
46944;BME280;32678;43.852;25.952;2022-07-01T04:06:17;100968.09;;;29.53;48.74
46944;BME280;32678;43.852;25.952;2022-07-01T04:11:16;100971.81;;;29.44;48.94
46944;BME280;32678;43.852;25.952;2022-07-01T04:16:13;100971.13;;;29.42;48.90
46944;BME280;32678;43.852;25.952;2022-07-01T04:21:10;100976.16;;;29.29;48.24
46944;BME280;32678;43.852;25.952;2022-07-01T04:26:32;100977.84;;;29.30;48.28
46944;BME280;32678;43.852;25.952;2022-07-01T04:31:37;100979.22;;;29.42;48.68
46944;BME280;32678;43.852;25.952;2022-07-01T04:36:36;100985.16;;;29.46;48.99
46944;BME280;32678;43.852;25.952;2022-07-01T04:41:35;100989.56;;;29.47;48.86
46944;BME280;32678;43.852;25.952;2022-07-01T04:46:53;100985.00;;;29.55;48.59
46944;BME280;32678;43.852;25.952;2022-07-01T04:51:50;100985.84;;;29.72;47.36
46944;BME280;32678;43.852;25.952;2022-07-01T04:56:49;100987.88;;;29.86;46.20
46944;BME280;32678;43.852;25.952;2022-07-01T05:01:47;100993.44;;;29.68;44.98
46944;BME280;32678;43.852;25.952;2022-07-01T05:06:45;100999.78;;;29.27;46.26
46944;BME280;32678;43.852;25.952;2022-07-01T05:11:42;100991.88;;;28.83;46.82
46944;BME280;32678;43.852;25.952;2022-07-01T05:16:40;100993.75;;;28.83;47.11
46944;BME280;32678;43.852;25.952;2022-07-01T05:21:37;100995.88;;;28.46;47.02
46944;BME280;32678;43.852;25.952;2022-07-01T05:26:52;100999.06;;;28.41;48.37
46944;BME280;32678;43.852;25.952;2022-07-01T05:31:55;100987.56;;;27.70;51.02
46944;BME280;32678;43.852;25.952;2022-07-01T05:37:04;100996.03;;;28.00;50.79
46944;BME280;32678;43.852;25.952;2022-07-01T05:42:00;100991.09;;;28.65;49.79
46944;BME280;32678;43.852;25.952;2022-07-01T05:46:58;101006.16;;;29.10;48.54
46944;BME280;32678;43.852;25.952;2022-07-01T05:51:57;101015.53;;;29.48;47.12
46944;BME280;32678;43.852;25.952;2022-07-01T05:56:57;101016.44;;;29.56;45.62
46944;BME280;32678;43.852;25.952;2022-07-01T06:01:54;101016.59;;;29.87;45.30
46944;BME280;32678;43.852;25.952;2022-07-01T06:06:52;101014.25;;;30.17;45.16
46944;BME280;32678;43.852;25.952;2022-07-01T06:11:48;101018.63;;;30.26;45.12
46944;BME280;32678;43.852;25.952;2022-07-01T06:16:45;101021.88;;;30.05;45.87
46944;BME280;32678;43.852;25.952;2022-07-01T06:21:42;101023.34;;;30.16;45.92
46944;BME280;32678;43.852;25.952;2022-07-01T06:39:07;101019.28;;;30.52;46.24
46944;BME280;32678;43.852;25.952;2022-07-01T06:44:05;101018.84;;;30.79;45.88
46944;BME280;32678;43.852;25.952;2022-07-01T06:49:01;101015.91;;;30.89;45.65
46944;BME280;32678;43.852;25.952;2022-07-01T06:54:00;101019.84;;;30.86;45.46
46944;BME280;32678;43.852;25.952;2022-07-01T06:58:57;101021.97;;;31.07;44.34
46944;BME280;32678;43.852;25.952;2022-07-01T07:03:55;101014.59;;;31.24;45.35
46944;BME280;32678;43.852;25.952;2022-07-01T07:08:51;101008.63;;;31.28;45.05
46944;BME280;32678;43.852;25.952;2022-07-01T07:13:48;101008.94;;;31.33;44.38
46944;BME280;32678;43.852;25.952;2022-07-01T07:18:45;101000.56;;;31.20;44.40
46944;BME280;32678;43.852;25.952;2022-07-01T07:23:43;101016.06;;;31.34;44.58
46944;BME280;32678;43.852;25.952;2022-07-01T07:28:40;101016.19;;;31.41;44.34
46944;BME280;32678;43.852;25.952;2022-07-01T07:33:48;101029.50;;;31.51;43.67
46944;BME280;32678;43.852;25.952;2022-07-01T07:51:41;101011.25;;;31.75;43.22
46944;BME280;32678;43.852;25.952;2022-07-01T07:57:20;101012.44;;;31.96;42.56
46944;BME280;32678;43.852;25.952;2022-07-01T08:02:19;101015.69;;;32.14;42.39
46944;BME280;32678;43.852;25.952;2022-07-01T08:07:21;101012.53;;;32.25;42.39
46944;BME280;32678;43.852;25.952;2022-07-01T08:12:20;101007.66;;;32.35;42.38
46944;BME280;32678;43.852;25.952;2022-07-01T08:17:17;101012.63;;;32.46;42.21
46944;BME280;32678;43.852;25.952;2022-07-01T08:22:16;101009.44;;;32.57;41.27
46944;BME280;32678;43.852;25.952;2022-07-01T08:27:19;101006.94;;;32.71;40.87
46944;BME280;32678;43.852;25.952;2022-07-01T08:32:16;100998.78;;;32.71;41.50
46944;BME280;32678;43.852;25.952;2022-07-01T08:37:13;101006.00;;;32.78;41.34
46944;BME280;32678;43.852;25.952;2022-07-01T08:42:10;101001.75;;;32.90;39.81
46944;BME280;32678;43.852;25.952;2022-07-01T08:47:11;101004.00;;;33.01;39.71
46944;BME280;32678;43.852;25.952;2022-07-01T08:52:08;101006.59;;;33.09;38.00
46944;BME280;32678;43.852;25.952;2022-07-01T08:57:06;101012.69;;;33.12;37.03
46944;BME280;32678;43.852;25.952;2022-07-01T09:02:05;101019.06;;;33.19;37.07
46944;BME280;32678;43.852;25.952;2022-07-01T09:07:05;101007.19;;;32.90;35.60
46944;BME280;32678;43.852;25.952;2022-07-01T09:12:03;101014.03;;;32.86;36.09
46944;BME280;32678;43.852;25.952;2022-07-01T09:17:06;101011.91;;;32.67;35.82
46944;BME280;32678;43.852;25.952;2022-07-01T09:22:04;101013.84;;;32.58;35.97
46944;BME280;32678;43.852;25.952;2022-07-01T09:27:02;101006.44;;;32.52;35.76
46944;BME280;32678;43.852;25.952;2022-07-01T09:32:01;101013.56;;;32.53;36.79
46944;BME280;32678;43.852;25.952;2022-07-01T09:37:04;100999.16;;;32.82;36.37
46944;BME280;32678;43.852;25.952;2022-07-01T09:42:05;101004.56;;;32.97;35.52
46944;BME280;32678;43.852;25.952;2022-07-01T09:47:02;100995.84;;;33.16;35.71
46944;BME280;32678;43.852;25.952;2022-07-01T09:52:01;100994.19;;;33.36;35.29
46944;BME280;32678;43.852;25.952;2022-07-01T09:56:59;100988.31;;;33.54;34.03
46944;BME280;32678;43.852;25.952;2022-07-01T10:01:56;100978.97;;;33.63;33.69
46944;BME280;32678;43.852;25.952;2022-07-01T10:07:10;100974.56;;;33.77;34.83
46944;BME280;32678;43.852;25.952;2022-07-01T10:12:23;100972.53;;;33.85;34.54
46944;BME280;32678;43.852;25.952;2022-07-01T10:17:26;100973.53;;;34.06;34.61
46944;BME280;32678;43.852;25.952;2022-07-01T10:22:24;100975.69;;;34.17;34.70
46944;BME280;32678;43.852;25.952;2022-07-01T10:27:23;100976.59;;;34.24;35.34
46944;BME280;32678;43.852;25.952;2022-07-01T10:32:27;100953.44;;;34.34;34.54
46944;BME280;32678;43.852;25.952;2022-07-01T10:37:57;100961.25;;;34.51;34.04
46944;BME280;32678;43.852;25.952;2022-07-01T10:42:57;100948.72;;;34.56;33.93
46944;BME280;32678;43.852;25.952;2022-07-01T10:48:17;100945.09;;;34.77;34.20
46944;BME280;32678;43.852;25.952;2022-07-01T10:53:18;100940.97;;;35.01;33.69
46944;BME280;32678;43.852;25.952;2022-07-01T10:58:16;100931.56;;;35.10;33.44
46944;BME280;32678;43.852;25.952;2022-07-01T11:03:16;100928.69;;;35.18;32.43
46944;BME280;32678;43.852;25.952;2022-07-01T11:08:13;100926.81;;;35.18;31.62
46944;BME280;32678;43.852;25.952;2022-07-01T11:13:19;100922.81;;;35.34;31.83
46944;BME280;32678;43.852;25.952;2022-07-01T11:18:18;100914.66;;;35.41;32.32
46944;BME280;32678;43.852;25.952;2022-07-01T11:23:15;100918.84;;;35.37;32.80
46944;BME280;32678;43.852;25.952;2022-07-01T11:28:12;100911.50;;;35.17;32.76
46944;BME280;32678;43.852;25.952;2022-07-01T11:33:10;100907.84;;;34.97;33.17
46944;BME280;32678;43.852;25.952;2022-07-01T11:38:08;100905.41;;;35.29;31.96
46944;BME280;32678;43.852;25.952;2022-07-01T11:43:26;100901.66;;;35.56;31.88
46944;BME280;32678;43.852;25.952;2022-07-01T11:48:34;100890.53;;;35.64;31.55
46944;BME280;32678;43.852;25.952;2022-07-01T11:53:33;100890.56;;;35.57;30.66
46944;BME280;32678;43.852;25.952;2022-07-01T11:58:42;100889.28;;;35.53;30.67
46944;BME280;32678;43.852;25.952;2022-07-01T12:03:40;100880.06;;;35.48;30.34
46944;BME280;32678;43.852;25.952;2022-07-01T12:08:38;100864.09;;;35.25;30.57
46944;BME280;32678;43.852;25.952;2022-07-01T12:13:36;100868.53;;;34.65;31.98
46944;BME280;32678;43.852;25.952;2022-07-01T12:18:34;100860.41;;;34.24;32.73
46944;BME280;32678;43.852;25.952;2022-07-01T12:23:32;100836.72;;;34.18;34.39
46944;BME280;32678;43.852;25.952;2022-07-01T12:28:37;100841.84;;;34.41;33.60
46944;BME280;32678;43.852;25.952;2022-07-01T12:33:35;100852.91;;;34.33;33.70
46944;BME280;32678;43.852;25.952;2022-07-01T12:38:33;100847.84;;;34.23;34.17
46944;BME280;32678;43.852;25.952;2022-07-01T12:43:31;100841.69;;;34.56;34.16
46944;BME280;32678;43.852;25.952;2022-07-01T12:48:47;100847.25;;;34.95;33.78
46944;BME280;32678;43.852;25.952;2022-07-01T12:53:45;100847.22;;;34.69;33.90
46944;BME280;32678;43.852;25.952;2022-07-01T12:58:41;100844.97;;;34.99;33.72
46944;BME280;32678;43.852;25.952;2022-07-01T13:03:38;100831.72;;;34.76;33.39
46944;BME280;32678;43.852;25.952;2022-07-01T13:08:35;100827.69;;;34.59;34.12
46944;BME280;32678;43.852;25.952;2022-07-01T13:13:33;100821.06;;;34.88;34.39
46944;BME280;32678;43.852;25.952;2022-07-01T13:18:30;100828.53;;;34.66;34.19
46944;BME280;32678;43.852;25.952;2022-07-01T13:23:27;100833.91;;;34.40;34.52
46944;BME280;32678;43.852;25.952;2022-07-01T13:28:24;100829.06;;;34.42;34.24
46944;BME280;32678;43.852;25.952;2022-07-01T13:33:21;100827.22;;;34.55;34.48
46944;BME280;32678;43.852;25.952;2022-07-01T13:38:18;100827.69;;;34.65;34.70
46944;BME280;32678;43.852;25.952;2022-07-01T13:43:15;100827.19;;;34.42;34.81
46944;BME280;32678;43.852;25.952;2022-07-01T13:48:12;100825.56;;;34.61;33.15
46944;BME280;32678;43.852;25.952;2022-07-01T13:53:10;100821.38;;;34.58;33.85
46944;BME280;32678;43.852;25.952;2022-07-01T13:58:07;100826.06;;;34.71;33.60
46944;BME280;32678;43.852;25.952;2022-07-01T14:03:06;100829.31;;;34.47;33.39
46944;BME280;32678;43.852;25.952;2022-07-01T14:08:03;100825.72;;;34.40;33.34
46944;BME280;32678;43.852;25.952;2022-07-01T14:13:01;100824.63;;;34.21;33.14
46944;BME280;32678;43.852;25.952;2022-07-01T14:17:58;100815.22;;;34.30;32.49
46944;BME280;32678;43.852;25.952;2022-07-01T14:22:55;100818.94;;;34.76;32.24
46944;BME280;32678;43.852;25.952;2022-07-01T14:27:52;100822.47;;;34.64;32.24
46944;BME280;32678;43.852;25.952;2022-07-01T14:32:50;100822.72;;;34.75;32.29
46944;BME280;32678;43.852;25.952;2022-07-01T14:37:47;100830.56;;;34.51;31.25
46944;BME280;32678;43.852;25.952;2022-07-01T14:42:44;100831.38;;;34.38;31.49
46944;BME280;32678;43.852;25.952;2022-07-01T14:47:42;100824.91;;;34.46;31.92
46944;BME280;32678;43.852;25.952;2022-07-01T14:52:39;100821.09;;;34.33;30.90
46944;BME280;32678;43.852;25.952;2022-07-01T14:57:36;100826.16;;;34.43;31.33
46944;BME280;32678;43.852;25.952;2022-07-01T15:02:33;100818.56;;;34.32;30.66
46944;BME280;32678;43.852;25.952;2022-07-01T15:07:30;100818.88;;;34.50;29.96
46944;BME280;32678;43.852;25.952;2022-07-01T15:12:28;100823.28;;;34.17;30.62
46944;BME280;32678;43.852;25.952;2022-07-01T15:17:25;100824.50;;;34.08;30.65
46944;BME280;32678;43.852;25.952;2022-07-01T15:22:22;100820.69;;;34.02;31.04
46944;BME280;32678;43.852;25.952;2022-07-01T15:27:21;100827.38;;;34.34;31.34
46944;BME280;32678;43.852;25.952;2022-07-01T15:32:18;100822.63;;;34.08;30.68
46944;BME280;32678;43.852;25.952;2022-07-01T15:37:17;100824.06;;;34.39;30.32
46944;BME280;32678;43.852;25.952;2022-07-01T15:42:15;100820.72;;;34.43;29.93
46944;BME280;32678;43.852;25.952;2022-07-01T15:47:12;100813.53;;;34.29;30.27
46944;BME280;32678;43.852;25.952;2022-07-01T15:52:28;100809.38;;;34.33;30.46
46944;BME280;32678;43.852;25.952;2022-07-01T15:57:26;100793.22;;;34.31;29.60
46944;BME280;32678;43.852;25.952;2022-07-01T16:02:23;100806.56;;;34.67;28.58
46944;BME280;32678;43.852;25.952;2022-07-01T16:07:21;100810.53;;;34.17;30.02
46944;BME280;32678;43.852;25.952;2022-07-01T16:12:19;100806.22;;;34.36;29.48
46944;BME280;32678;43.852;25.952;2022-07-01T16:17:18;100814.00;;;34.39;29.44
46944;BME280;32678;43.852;25.952;2022-07-01T16:22:21;100809.59;;;34.38;29.30
46944;BME280;32678;43.852;25.952;2022-07-01T16:27:22;100810.22;;;34.33;29.27
46944;BME280;32678;43.852;25.952;2022-07-01T16:32:19;100802.31;;;34.45;30.22
46944;BME280;32678;43.852;25.952;2022-07-01T16:37:19;100801.53;;;34.71;29.65
46944;BME280;32678;43.852;25.952;2022-07-01T16:48:24;100804.50;;;34.69;28.64
46944;BME280;32678;43.852;25.952;2022-07-01T16:54:13;100824.63;;;34.82;28.72
46944;BME280;32678;43.852;25.952;2022-07-01T16:59:51;100831.84;;;34.61;29.89
46944;BME280;32678;43.852;25.952;2022-07-01T17:04:50;100834.59;;;34.61;29.74
46944;BME280;32678;43.852;25.952;2022-07-01T17:09:47;100827.09;;;34.70;29.58
46944;BME280;32678;43.852;25.952;2022-07-01T17:14:47;100846.09;;;35.17;32.41
46944;BME280;32678;43.852;25.952;2022-07-01T17:19:44;100848.34;;;34.40;33.60
46944;BME280;32678;43.852;25.952;2022-07-01T17:24:48;100861.09;;;34.33;34.29
46944;BME280;32678;43.852;25.952;2022-07-01T17:29:49;100863.06;;;34.59;34.01
46944;BME280;32678;43.852;25.952;2022-07-01T17:34:50;100864.59;;;34.27;34.69
46944;BME280;32678;43.852;25.952;2022-07-01T17:39:47;100865.44;;;34.21;35.09
46944;BME280;32678;43.852;25.952;2022-07-01T17:44:47;100874.00;;;33.90;35.60
46944;BME280;32678;43.852;25.952;2022-07-01T17:49:46;100871.00;;;34.13;35.21
46944;BME280;32678;43.852;25.952;2022-07-01T17:54:50;100882.78;;;33.92;35.82
46944;BME280;32678;43.852;25.952;2022-07-01T17:59:49;100878.66;;;33.68;36.35
46944;BME280;32678;43.852;25.952;2022-07-01T18:04:50;100893.78;;;34.05;36.04
46944;BME280;32678;43.852;25.952;2022-07-01T18:09:47;100902.06;;;33.97;36.27
46944;BME280;32678;43.852;25.952;2022-07-01T18:14:50;100902.88;;;34.19;35.83
46944;BME280;32678;43.852;25.952;2022-07-01T18:19:56;100902.00;;;33.84;36.30
46944;BME280;32678;43.852;25.952;2022-07-01T18:24:55;100902.06;;;33.90;36.25
46944;BME280;32678;43.852;25.952;2022-07-01T18:29:55;100901.56;;;33.59;37.22
46944;BME280;32678;43.852;25.952;2022-07-01T18:34:55;100917.63;;;33.54;37.28
46944;BME280;32678;43.852;25.952;2022-07-01T18:39:55;100923.56;;;33.64;37.38
46944;BME280;32678;43.852;25.952;2022-07-01T18:44:52;100924.09;;;33.53;37.70
46944;BME280;32678;43.852;25.952;2022-07-01T18:49:50;100930.44;;;33.81;40.87
46944;BME280;32678;43.852;25.952;2022-07-01T18:54:47;100929.88;;;33.92;42.01
46944;BME280;32678;43.852;25.952;2022-07-01T18:59:44;100945.50;;;33.84;41.48
46944;BME280;32678;43.852;25.952;2022-07-01T19:04:41;100945.66;;;33.76;41.11
46944;BME280;32678;43.852;25.952;2022-07-01T19:09:40;100957.81;;;33.80;41.12
46944;BME280;32678;43.852;25.952;2022-07-01T19:14:39;100959.31;;;33.40;41.04
46944;BME280;32678;43.852;25.952;2022-07-01T19:19:36;100958.53;;;33.25;41.80
46944;BME280;32678;43.852;25.952;2022-07-01T19:24:33;100972.56;;;32.63;44.61
46944;BME280;32678;43.852;25.952;2022-07-01T19:29:31;100983.50;;;32.40;43.71
46944;BME280;32678;43.852;25.952;2022-07-01T19:34:28;100985.88;;;32.87;42.67
46944;BME280;32678;43.852;25.952;2022-07-01T19:39:27;100992.66;;;33.13;43.77
46944;BME280;32678;43.852;25.952;2022-07-01T19:44:24;101007.59;;;32.87;44.72
46944;BME280;32678;43.852;25.952;2022-07-01T19:49:22;100996.31;;;33.05;43.92
46944;BME280;32678;43.852;25.952;2022-07-01T19:54:19;101003.75;;;32.67;44.63
46944;BME280;32678;43.852;25.952;2022-07-01T19:59:18;101002.91;;;32.66;43.63
46944;BME280;32678;43.852;25.952;2022-07-01T20:04:18;101012.63;;;32.90;43.00
46944;BME280;32678;43.852;25.952;2022-07-01T20:09:15;100995.66;;;33.03;41.54
46944;BME280;32678;43.852;25.952;2022-07-01T20:14:13;101015.81;;;33.08;42.89
46944;BME280;32678;43.852;25.952;2022-07-01T20:19:10;101006.22;;;33.13;42.52
46944;BME280;32678;43.852;25.952;2022-07-01T20:24:10;101012.06;;;32.80;42.28
46944;BME280;32678;43.852;25.952;2022-07-01T20:29:10;101008.78;;;32.85;45.36
46944;BME280;32678;43.852;25.952;2022-07-01T20:34:09;101004.97;;;32.35;41.90
46944;BME280;32678;43.852;25.952;2022-07-01T20:39:05;101002.41;;;31.51;44.42
46944;BME280;32678;43.852;25.952;2022-07-01T20:44:04;101006.84;;;31.74;45.80
46944;BME280;32678;43.852;25.952;2022-07-01T20:49:02;101013.44;;;31.95;44.79
46944;BME280;32678;43.852;25.952;2022-07-01T20:53:59;101007.94;;;32.03;46.34
46944;BME280;32678;43.852;25.952;2022-07-01T20:58:56;101012.41;;;31.50;44.29
46944;BME280;32678;43.852;25.952;2022-07-01T21:04:13;101016.47;;;31.77;42.68
46944;BME280;32678;43.852;25.952;2022-07-01T21:09:11;101015.97;;;31.20;43.95
46944;BME280;32678;43.852;25.952;2022-07-01T21:14:07;101011.56;;;30.80;45.14
46944;BME280;32678;43.852;25.952;2022-07-01T21:19:04;101010.06;;;30.77;45.45
46944;BME280;32678;43.852;25.952;2022-07-01T21:24:04;101007.25;;;30.63;45.76
46944;BME280;32678;43.852;25.952;2022-07-01T21:29:01;101017.94;;;30.48;46.17
46944;BME280;32678;43.852;25.952;2022-07-01T21:33:58;101014.72;;;30.52;46.29
46944;BME280;32678;43.852;25.952;2022-07-01T21:38:59;101008.53;;;30.75;45.42
46944;BME280;32678;43.852;25.952;2022-07-01T21:43:57;101012.16;;;30.51;45.65
46944;BME280;32678;43.852;25.952;2022-07-01T21:48:56;101019.81;;;30.47;46.02
46944;BME280;32678;43.852;25.952;2022-07-01T21:53:53;101003.88;;;30.52;45.53
46944;BME280;32678;43.852;25.952;2022-07-01T21:58:51;101016.56;;;30.99;44.91
46944;BME280;32678;43.852;25.952;2022-07-01T22:03:48;101014.13;;;31.20;45.15
46944;BME280;32678;43.852;25.952;2022-07-01T22:08:47;101016.41;;;31.62;44.20
46944;BME280;32678;43.852;25.952;2022-07-01T22:13:46;101015.28;;;31.26;43.87
46944;BME280;32678;43.852;25.952;2022-07-01T22:18:46;101032.41;;;31.18;43.96
46944;BME280;32678;43.852;25.952;2022-07-01T22:23:44;101028.69;;;31.19;44.47
46944;BME280;32678;43.852;25.952;2022-07-01T22:28:41;101021.34;;;31.59;45.00
46944;BME280;32678;43.852;25.952;2022-07-01T22:33:39;101026.97;;;31.80;45.46
46944;BME280;32678;43.852;25.952;2022-07-01T22:38:37;101026.44;;;31.62;46.53
46944;BME280;32678;43.852;25.952;2022-07-01T22:43:35;101034.91;;;31.59;47.25
46944;BME280;32678;43.852;25.952;2022-07-01T22:48:34;101042.97;;;31.67;46.46
46944;BME280;32678;43.852;25.952;2022-07-01T22:53:37;101048.19;;;31.76;45.20
46944;BME280;32678;43.852;25.952;2022-07-01T22:58:39;101055.03;;;31.64;45.41
46944;BME280;32678;43.852;25.952;2022-07-01T23:03:37;101055.63;;;31.44;45.91
46944;BME280;32678;43.852;25.952;2022-07-01T23:08:36;101056.34;;;31.37;45.73
46944;BME280;32678;43.852;25.952;2022-07-01T23:13:43;101046.31;;;31.15;46.68
46944;BME280;32678;43.852;25.952;2022-07-01T23:19:04;101049.28;;;31.28;46.50
46944;BME280;32678;43.852;25.952;2022-07-01T23:24:02;101042.75;;;31.46;46.19
46944;BME280;32678;43.852;25.952;2022-07-01T23:28:59;101050.31;;;31.58;45.90
46944;BME280;32678;43.852;25.952;2022-07-01T23:33:57;101056.78;;;31.49;46.36
46944;BME280;32678;43.852;25.952;2022-07-01T23:38:55;101073.31;;;31.31;46.66
46944;BME280;32678;43.852;25.952;2022-07-01T23:43:52;101075.56;;;31.20;47.00
46944;BME280;32678;43.852;25.952;2022-07-01T23:48:50;101074.47;;;31.06;46.61
46944;BME280;32678;43.852;25.952;2022-07-01T23:53:47;101084.97;;;30.93;46.68
46944;BME280;32678;43.852;25.952;2022-07-01T23:58:46;101089.22;;;30.87;46.98
